sensor_id;sensor_type;location;lat;lon;timestamp;pressure;altitude;pressure_sealevel;temperature;humidity
58739;BME280;44512;53.046;18.604;2023-04-02T00:15:38;101016.68;;;6.15;63.33
58739;BME280;44512;53.046;18.604;2023-04-02T00:36:34;101041.54;;;6.17;63.19
58739;BME280;44512;53.046;18.604;2023-04-02T00:47:10;101051.27;;;6.10;62.82
58739;BME280;44512;53.046;18.604;2023-04-02T00:57:31;101068.36;;;6.01;62.75
58739;BME280;44512;53.046;18.604;2023-04-02T01:08:06;101075.37;;;5.94;62.64
58739;BME280;44512;53.046;18.604;2023-04-02T01:49:57;101118.97;;;5.88;63.24
58739;BME280;44512;53.046;18.604;2023-04-02T02:00:21;101114.91;;;5.84;63.42
58739;BME280;44512;53.046;18.604;2023-04-02T02:10:49;101124.68;;;5.85;63.43
58739;BME280;44512;53.046;18.604;2023-04-02T02:31:46;101157.39;;;5.80;63.52
58739;BME280;44512;53.046;18.604;2023-04-02T02:42:23;101145.81;;;5.80;63.35
58739;BME280;44512;53.046;18.604;2023-04-02T02:52:48;101175.49;;;5.78;63.45
58739;BME280;44512;53.046;18.604;2023-04-02T03:03:18;101171.30;;;5.75;63.50
58739;BME280;44512;53.046;18.604;2023-04-02T03:13:42;101194.77;;;5.73;63.43
58739;BME280;44512;53.046;18.604;2023-04-02T03:24:17;101186.04;;;5.71;63.39
58739;BME280;44512;53.046;18.604;2023-04-02T03:45:14;101230.48;;;5.66;63.52
58739;BME280;44512;53.046;18.604;2023-04-02T03:55:36;101236.99;;;5.63;63.45
58739;BME280;44512;53.046;18.604;2023-04-02T04:06:07;101257.51;;;5.64;63.44
58739;BME280;44512;53.046;18.604;2023-04-02T04:16:48;101272.91;;;5.62;63.50
58739;BME280;44512;53.046;18.604;2023-04-02T04:37:32;101301.10;;;5.58;63.44
58739;BME280;44512;53.046;18.604;2023-04-02T04:47:58;101310.45;;;5.54;63.41
58739;BME280;44512;53.046;18.604;2023-04-02T04:58:31;101340.84;;;5.55;63.59
58739;BME280;44512;53.046;18.604;2023-04-02T05:08:54;101354.95;;;5.57;63.89
58739;BME280;44512;53.046;18.604;2023-04-02T05:19:30;101362.32;;;5.55;64.15
58739;BME280;44512;53.046;18.604;2023-04-02T05:29:59;101382.12;;;5.54;64.31
58739;BME280;44512;53.046;18.604;2023-04-02T05:40:26;101392.98;;;5.52;64.22
58739;BME280;44512;53.046;18.604;2023-04-02T05:50:50;101403.34;;;5.47;64.08
58739;BME280;44512;53.046;18.604;2023-04-02T06:11:50;101432.79;;;5.39;63.88
58739;BME280;44512;53.046;18.604;2023-04-02T06:32:39;101469.98;;;5.34;64.02
58739;BME280;44512;53.046;18.604;2023-04-02T06:53:43;101494.27;;;5.32;64.49
58739;BME280;44512;53.046;18.604;2023-04-02T07:04:04;101508.55;;;5.33;64.65
58739;BME280;44512;53.046;18.604;2023-04-02T07:14:32;101515.61;;;5.34;64.88
58739;BME280;44512;53.046;18.604;2023-04-02T07:25:01;101532.84;;;5.31;65.01
58739;BME280;44512;53.046;18.604;2023-04-02T07:35:29;101549.79;;;5.32;65.24
58739;BME280;44512;53.046;18.604;2023-04-02T07:45:58;101563.52;;;5.29;65.43
58739;BME280;44512;53.046;18.604;2023-04-02T07:56:26;101571.58;;;5.29;65.62
58739;BME280;44512;53.046;18.604;2023-04-02T08:06:54;101594.46;;;5.33;65.86
58739;BME280;44512;53.046;18.604;2023-04-02T08:17:23;101604.89;;;5.36;66.07
58739;BME280;44512;53.046;18.604;2023-04-02T08:27:51;101626.09;;;5.39;66.04
58739;BME280;44512;53.046;18.604;2023-04-02T08:38:20;101641.89;;;5.42;65.97
58739;BME280;44512;53.046;18.604;2023-04-02T08:48:54;101642.05;;;5.40;65.96
58739;BME280;44512;53.046;18.604;2023-04-02T09:09:48;101658.32;;;5.39;66.36
58739;BME280;44512;53.046;18.604;2023-04-02T09:20:17;101669.59;;;5.42;66.63
58739;BME280;44512;53.046;18.604;2023-04-02T09:35:31;101698.70;;;5.47;66.96
58739;BME280;44512;53.046;18.604;2023-04-02T09:46:01;101714.54;;;5.50;67.06
58739;BME280;44512;53.046;18.604;2023-04-02T09:56:26;101728.95;;;5.59;66.83
58739;BME280;44512;53.046;18.604;2023-04-02T10:06:55;101743.65;;;5.64;66.63
58739;BME280;44512;53.046;18.604;2023-04-02T10:17:29;101749.28;;;5.71;66.34
58739;BME280;44512;53.046;18.604;2023-04-02T10:28:03;101771.34;;;5.74;66.13
58739;BME280;44512;53.046;18.604;2023-04-02T10:59:26;101812.06;;;5.80;65.01
58739;BME280;44512;53.046;18.604;2023-04-02T11:09:49;101819.12;;;5.81;64.87
58739;BME280;44512;53.046;18.604;2023-04-02T11:30:44;101856.86;;;5.89;64.40
58739;BME280;44512;53.046;18.604;2023-04-02T11:41:10;101855.62;;;5.93;63.97
58739;BME280;44512;53.046;18.604;2023-04-02T11:51:47;101872.32;;;5.96;63.79
58739;BME280;44512;53.046;18.604;2023-04-02T12:33:37;101921.66;;;6.24;61.85
58739;BME280;44512;53.046;18.604;2023-04-02T12:44:11;101928.88;;;6.34;61.62
58739;BME280;44512;53.046;18.604;2023-04-02T12:54:34;101946.13;;;6.41;60.96
58739;BME280;44512;53.046;18.604;2023-04-02T13:04:59;101957.87;;;6.49;60.41
58739;BME280;44512;53.046;18.604;2023-04-02T13:15:31;101976.12;;;6.56;60.27
58739;BME280;44512;53.046;18.604;2023-04-02T13:25:59;101990.14;;;6.59;59.28
58739;BME280;44512;53.046;18.604;2023-04-02T13:36:23;101988.88;;;6.63;58.82
58739;BME280;44512;53.046;18.604;2023-04-02T13:46:52;102024.54;;;6.65;57.93
58739;BME280;44512;53.046;18.604;2023-04-02T13:57:19;102021.85;;;6.65;57.02
58739;BME280;44512;53.046;18.604;2023-04-02T14:49:44;102078.65;;;6.62;55.18
58739;BME280;44512;53.046;18.604;2023-04-02T15:31:36;102138.81;;;6.61;53.62
58739;BME280;44512;53.046;18.604;2023-04-02T15:52:46;102185.42;;;6.62;52.72
58739;BME280;44512;53.046;18.604;2023-04-02T16:13:35;102219.62;;;7.29;51.40
58739;BME280;44512;53.046;18.604;2023-04-02T16:23:57;102219.46;;;7.30;50.38
58739;BME280;44512;53.046;18.604;2023-04-02T16:34:41;102231.23;;;7.20;49.77
58739;BME280;44512;53.046;18.604;2023-04-02T16:55:32;102266.19;;;6.91;49.40
58739;BME280;44512;53.046;18.604;2023-04-02T17:06:00;102291.65;;;6.77;49.62
58739;BME280;44512;53.046;18.604;2023-04-02T17:16:22;102296.30;;;6.65;49.56
58739;BME280;44512;53.046;18.604;2023-04-02T17:26:51;102322.45;;;6.53;49.07
58739;BME280;44512;53.046;18.604;2023-04-02T17:47:56;102344.66;;;6.25;49.24
58739;BME280;44512;53.046;18.604;2023-04-02T18:08:56;102381.60;;;6.02;49.61
58739;BME280;44512;53.046;18.604;2023-04-02T18:50:36;102450.23;;;5.63;51.12
58739;BME280;44512;53.046;18.604;2023-04-02T19:01:04;102470.66;;;5.54;51.52
58739;BME280;44512;53.046;18.604;2023-04-02T19:11:31;102485.68;;;5.45;52.11
58739;BME280;44512;53.046;18.604;2023-04-02T19:22:09;102488.02;;;5.39;52.55
58739;BME280;44512;53.046;18.604;2023-04-02T19:32:51;102490.22;;;5.22;53.03
58739;BME280;44512;53.046;18.604;2023-04-02T19:42:56;102510.59;;;5.25;53.40
58739;BME280;44512;53.046;18.604;2023-04-02T19:53:24;102509.96;;;5.21;53.73
58739;BME280;44512;53.046;18.604;2023-04-02T20:03:53;102515.60;;;5.18;53.94
58739;BME280;44512;53.046;18.604;2023-04-02T20:14:21;102535.59;;;5.14;54.18
58739;BME280;44512;53.046;18.604;2023-04-02T20:24:50;102546.20;;;5.05;54.34
58739;BME280;44512;53.046;18.604;2023-04-02T20:35:18;102561.81;;;5.00;54.57
58739;BME280;44512;53.046;18.604;2023-04-02T20:56:16;102582.16;;;4.91;54.74
58739;BME280;44512;53.046;18.604;2023-04-02T21:06:43;102600.69;;;4.83;54.95
58739;BME280;44512;53.046;18.604;2023-04-02T21:17:12;102597.72;;;4.75;55.08
58739;BME280;44512;53.046;18.604;2023-04-02T21:27:40;102605.04;;;4.73;55.16
58739;BME280;44512;53.046;18.604;2023-04-02T21:38:09;102615.39;;;4.66;55.20
58739;BME280;44512;53.046;18.604;2023-04-02T21:48:37;102630.84;;;4.62;55.33
58739;BME280;44512;53.046;18.604;2023-04-02T21:59:07;102642.04;;;4.56;55.43
58739;BME280;44512;53.046;18.604;2023-04-02T22:09:33;102650.55;;;4.50;55.64
58739;BME280;44512;53.046;18.604;2023-04-02T22:20:02;102660.52;;;4.48;55.74
58739;BME280;44512;53.046;18.604;2023-04-02T22:30:32;102669.75;;;4.44;55.95
58739;BME280;44512;53.046;18.604;2023-04-02T22:41:07;102673.85;;;4.37;56.22
58739;BME280;44512;53.046;18.604;2023-04-02T22:51:28;102673.13;;;4.35;56.37
58739;BME280;44512;53.046;18.604;2023-04-02T23:01:55;102681.37;;;4.32;56.54
58739;BME280;44512;53.046;18.604;2023-04-02T23:12:24;102688.70;;;4.30;56.67
58739;BME280;44512;53.046;18.604;2023-04-02T23:22:52;102687.20;;;4.26;56.84
58739;BME280;44512;53.046;18.604;2023-04-02T23:33:21;102692.77;;;4.23;57.03
58739;BME280;44512;53.046;18.604;2023-04-02T23:43:49;102691.52;;;4.15;57.22
58739;BME280;44512;53.046;18.604;2023-04-02T23:54:17;102700.00;;;4.09;57.54
